createdAt,value
2022-11-24T00:04:53.826Z,9.70
2022-11-24T00:09:56.308Z,10.02
2022-11-24T00:14:58.880Z,9.27
2022-11-24T00:20:02.811Z,10.20
2022-11-24T00:25:05.694Z,8.55
2022-11-24T00:30:09.503Z,9.57
2022-11-24T00:35:13.319Z,8.02
2022-11-24T00:40:15.821Z,8.05
2022-11-24T00:45:18.305Z,7.75
2022-11-24T00:50:22.514Z,7.93
2022-11-24T00:55:25.055Z,7.88
2022-11-24T01:00:27.541Z,7.53
2022-11-24T01:05:31.406Z,8.45
2022-11-24T01:10:34.379Z,9.35
2022-11-24T01:15:37.175Z,7.70
2022-11-24T01:20:41.225Z,7.17
2022-11-24T01:25:43.696Z,7.47
2022-11-24T01:30:47.433Z,6.95
2022-11-24T01:35:51.316Z,8.07
2022-11-24T01:41:01.420Z,6.35
2022-11-24T01:46:06.140Z,6.47
2022-11-24T01:51:12.467Z,6.47
2022-11-24T01:56:15.174Z,7.35
2022-11-24T02:01:17.715Z,7.10
2022-11-24T02:06:23.632Z,6.88
2022-11-24T02:11:27.671Z,6.75
2022-11-24T02:16:30.837Z,6.30
2022-11-24T02:21:34.742Z,5.65
2022-11-24T02:26:42.034Z,6.72
2022-11-24T02:31:47.680Z,6.15
2022-11-24T02:36:50.204Z,6.05
2022-11-24T02:41:55.575Z,5.55
2022-11-24T02:47:05.410Z,5.63
2022-11-24T02:52:07.940Z,4.90
2022-11-24T02:57:12.090Z,5.78
2022-11-24T03:02:14.606Z,5.50
2022-11-24T03:07:17.127Z,5.07
2022-11-24T03:12:21.039Z,5.47
2022-11-24T03:17:23.524Z,5.50
2022-11-24T03:22:26.020Z,5.18
2022-11-24T03:27:31.047Z,5.13
2022-11-24T03:32:33.527Z,5.60
2022-11-24T03:37:35.989Z,5.65
2022-11-24T03:42:40.519Z,5.60
2022-11-24T03:47:43.008Z,5.53
2022-11-24T03:52:45.487Z,5.47
2022-11-24T03:57:49.373Z,5.20
2022-11-24T04:02:51.872Z,5.07
2022-11-24T04:07:56.260Z,6.18
2022-11-24T04:13:00.119Z,5.55
2022-11-24T04:18:02.534Z,5.72
2022-11-24T04:23:05.149Z,5.32
2022-11-24T04:28:08.872Z,5.65
2022-11-24T04:33:11.583Z,5.50
2022-11-24T04:38:13.991Z,6.03
2022-11-24T04:43:40.604Z,5.32
2022-11-24T04:48:43.353Z,5.63
2022-11-24T04:53:45.812Z,6.20
2022-11-24T04:58:50.250Z,5.78
2022-11-24T05:03:54.013Z,6.30
2022-11-24T05:08:56.385Z,6.45
2022-11-24T05:14:00.091Z,6.15
2022-11-24T05:19:02.457Z,5.47
2022-11-24T05:24:05.142Z,6.22
2022-11-24T05:29:08.855Z,6.13
2022-11-24T05:34:11.593Z,6.50
2022-11-24T05:39:13.929Z,6.53
2022-11-24T05:44:17.632Z,5.50
2022-11-24T05:49:19.956Z,6.10
2022-11-24T05:54:22.290Z,6.00
2022-11-24T05:59:25.942Z,5.20
2022-11-24T06:04:28.377Z,5.60
2022-11-24T06:09:30.773Z,6.55
2022-11-24T06:14:34.418Z,6.65
2022-11-24T06:19:41.882Z,5.85
2022-11-24T06:24:44.678Z,5.25
2022-11-24T06:29:47.513Z,5.20
2022-11-24T06:34:51.213Z,5.35
2022-11-24T06:39:53.562Z,5.95
2022-11-24T06:44:55.894Z,5.80
2022-11-24T06:50:00.671Z,6.35
2022-11-24T06:55:03.058Z,6.78
2022-11-24T07:00:06.443Z,5.13
2022-11-24T07:05:10.607Z,5.53
2022-11-24T07:10:13.026Z,6.07
2022-11-24T07:15:15.433Z,5.95
2022-11-24T07:20:19.286Z,5.60
2022-11-24T07:25:21.805Z,4.97
2022-11-24T07:30:24.269Z,5.32
2022-11-24T07:35:28.024Z,4.70
2022-11-24T07:40:30.448Z,4.22
2022-11-24T07:45:33.212Z,4.45
2022-11-24T07:50:37.045Z,4.57
2022-11-24T07:55:39.416Z,5.03
2022-11-24T08:00:41.757Z,5.35
2022-11-24T08:06:22.289Z,5.78
2022-11-24T08:11:17.042Z,5.13
2022-11-24T08:16:20.221Z,5.93
2022-11-24T08:21:24.387Z,5.40
2022-11-24T08:26:26.750Z,5.43
2022-11-24T08:31:33.432Z,4.78
2022-11-24T08:36:37.546Z,4.30
2022-11-24T08:41:39.922Z,5.68
2022-11-24T08:46:42.397Z,5.53
2022-11-24T08:51:46.953Z,6.33
2022-11-24T08:56:50.075Z,8.05
2022-11-24T09:01:52.473Z,7.53
2022-11-24T09:06:56.199Z,9.25
2022-11-24T09:11:58.549Z,8.63
2022-11-24T09:17:00.948Z,9.43
2022-11-24T09:22:04.776Z,8.52
2022-11-24T09:27:07.150Z,8.95
2022-11-24T09:32:09.489Z,7.60
2022-11-24T09:37:13.253Z,7.97
2022-11-24T09:42:16.543Z,7.90
2022-11-24T09:47:22.461Z,8.75
2022-11-24T09:52:32.725Z,8.65
2022-11-24T09:57:37.732Z,8.30
2022-11-24T10:02:40.325Z,9.15
2022-11-24T10:07:46.215Z,8.43
2022-11-24T10:12:56.096Z,8.75
2022-11-24T10:18:03.746Z,8.57
2022-11-24T10:23:16.826Z,7.70
2022-11-24T10:28:19.191Z,7.77
2022-11-24T10:33:28.781Z,7.30
2022-11-24T10:38:36.647Z,7.15
2022-11-24T10:43:41.197Z,7.72
2022-11-24T10:48:46.607Z,7.10
2022-11-24T10:53:52.860Z,6.88
2022-11-24T10:58:55.273Z,5.43
2022-11-24T11:03:58.989Z,4.90
2022-11-24T11:09:19.127Z,4.35
2022-11-24T11:14:39.580Z,4.22
2022-11-24T11:19:52.396Z,4.20
2022-11-24T11:25:07.087Z,4.15
2022-11-24T11:35:46.630Z,4.93
2022-11-24T11:45:58.342Z,3.45
2022-11-24T11:56:27.094Z,4.00
2022-11-24T12:01:47.442Z,3.50
2022-11-24T12:07:04.738Z,3.22
2022-11-24T12:12:16.192Z,3.35
2022-11-24T12:17:22.306Z,3.50
2022-11-24T12:22:29.438Z,2.95
2022-11-24T12:27:41.689Z,4.20
2022-11-24T12:32:53.442Z,4.15
2022-11-24T12:38:01.172Z,3.25
2022-11-24T12:43:08.880Z,3.35
2022-11-24T12:48:16.421Z,3.40
2022-11-24T12:53:20.902Z,3.15
2022-11-24T12:58:28.808Z,3.25
2022-11-24T13:03:37.243Z,4.28
2022-11-24T13:08:40.086Z,3.35
2022-11-24T13:13:57.632Z,3.88
2022-11-24T13:19:01.415Z,4.50
2022-11-24T13:24:05.355Z,3.63
2022-11-24T13:29:29.931Z,3.22
2022-11-24T13:34:48.376Z,4.25
2022-11-24T13:39:51.529Z,3.92
2022-11-24T13:44:56.630Z,4.75
2022-11-24T13:49:59.359Z,4.13
2022-11-24T13:55:04.910Z,3.60
2022-11-24T14:00:19.293Z,4.65
2022-11-24T14:05:23.676Z,4.20
2022-11-24T14:10:30.678Z,3.95
2022-11-24T14:15:35.491Z,4.55
2022-11-24T14:20:37.857Z,4.53
2022-11-24T14:25:40.584Z,3.28
2022-11-24T14:30:44.335Z,4.33
2022-11-24T14:35:47.500Z,4.07
2022-11-24T14:40:51.274Z,4.15
2022-11-24T14:45:56.625Z,4.60
2022-11-24T14:51:06.917Z,4.60
2022-11-24T14:56:10.922Z,4.00
2022-11-24T15:01:21.357Z,4.10
2022-11-24T15:06:24.529Z,4.20
2022-11-24T15:11:27.020Z,4.68
2022-11-24T15:16:31.576Z,4.40
2022-11-24T15:21:34.615Z,4.80
2022-11-24T15:26:42.247Z,4.13
2022-11-24T15:31:52.181Z,5.22
2022-11-24T15:36:55.187Z,5.55
2022-11-24T15:41:57.616Z,6.28
2022-11-24T15:47:01.451Z,5.80
2022-11-24T15:52:03.960Z,5.97
2022-11-24T15:57:06.399Z,6.32
2022-11-24T16:02:10.994Z,6.03
2022-11-24T16:07:13.666Z,6.53
2022-11-24T16:12:16.077Z,6.37
2022-11-24T16:17:19.780Z,5.82
2022-11-24T16:22:22.245Z,7.03
2022-11-24T16:27:24.665Z,5.72
2022-11-24T16:32:28.407Z,6.50
2022-11-24T16:37:32.022Z,7.15
2022-11-24T16:42:34.382Z,6.88
2022-11-24T16:47:41.605Z,6.25
2022-11-24T16:52:43.949Z,7.80
2022-11-24T16:57:46.967Z,7.00
2022-11-24T17:02:50.772Z,6.80
2022-11-24T17:07:53.263Z,6.13
2022-11-24T17:12:55.673Z,6.78
2022-11-24T17:18:23.510Z,7.30
2022-11-24T17:23:22.772Z,7.23
2022-11-24T17:28:25.223Z,6.65
2022-11-24T17:33:30.405Z,7.13
2022-11-24T17:38:33.101Z,7.30
2022-11-24T17:43:35.645Z,6.80
2022-11-24T17:48:39.411Z,7.82
2022-11-24T17:53:42.413Z,7.70
2022-11-24T17:58:45.182Z,7.35
2022-11-24T18:03:53.364Z,7.90
2022-11-24T18:08:57.040Z,7.63
2022-11-24T18:14:01.658Z,7.53
2022-11-24T18:19:10.773Z,7.82
2022-11-24T18:24:17.400Z,8.93
2022-11-24T18:29:22.627Z,8.57
2022-11-24T18:34:26.348Z,8.02
2022-11-24T18:39:29.773Z,7.43
2022-11-24T18:44:32.333Z,7.25
2022-11-24T18:49:36.262Z,7.10
2022-11-24T18:54:38.892Z,7.63
2022-11-24T18:59:41.266Z,6.90
2022-11-24T19:04:44.977Z,7.63
2022-11-24T19:09:47.659Z,6.57
2022-11-24T19:14:50.005Z,6.70
2022-11-24T19:19:53.725Z,7.38
2022-11-24T19:24:56.114Z,8.38
2022-11-24T19:29:58.582Z,7.63
2022-11-24T19:35:02.299Z,7.93
2022-11-24T19:40:04.911Z,7.38
2022-11-24T19:45:08.082Z,7.73
2022-11-24T19:50:12.689Z,7.22
2022-11-24T19:55:20.261Z,6.22
2022-11-24T20:00:22.662Z,7.18
2022-11-24T20:05:26.372Z,5.90
2022-11-24T20:10:28.814Z,6.13
2022-11-24T20:15:31.267Z,5.93
2022-11-24T20:20:34.960Z,6.35
2022-11-24T20:25:37.721Z,5.28
2022-11-24T20:30:40.201Z,5.53
2022-11-24T20:35:43.921Z,5.85
2022-11-24T20:40:46.297Z,5.43
2022-11-24T20:45:48.770Z,5.60
2022-11-24T20:50:52.699Z,6.38
2022-11-24T20:56:05.583Z,5.57
2022-11-24T21:01:09.337Z,5.32
2022-11-24T21:06:13.402Z,5.25
2022-11-24T21:11:16.121Z,5.80
2022-11-24T21:16:23.412Z,5.53
2022-11-24T21:21:33.295Z,6.15
2022-11-24T21:26:35.913Z,5.70
2022-11-24T21:31:39.402Z,6.13
2022-11-24T21:41:48.933Z,4.90
2022-11-24T21:46:55.860Z,5.60
2022-11-24T21:51:58.739Z,5.50
2022-11-24T21:57:02.492Z,5.78
2022-11-24T22:02:10.260Z,5.82
2022-11-24T22:07:15.366Z,4.95
2022-11-24T22:12:19.211Z,6.32
2022-11-24T22:17:21.610Z,5.93
2022-11-24T22:22:23.970Z,6.25
2022-11-24T22:27:27.680Z,6.45
2022-11-24T22:32:30.071Z,6.15
2022-11-24T22:37:32.411Z,6.50
2022-11-24T22:42:36.096Z,7.22
2022-11-24T22:47:38.456Z,6.82
2022-11-24T22:52:40.808Z,7.05
2022-11-24T22:57:48.110Z,7.18
2022-11-24T23:02:50.901Z,8.20
2022-11-24T23:07:53.312Z,7.63
2022-11-24T23:12:57.135Z,7.10
2022-11-24T23:17:59.516Z,7.60
2022-11-24T23:23:01.927Z,7.15
2022-11-24T23:28:05.867Z,7.50
2022-11-24T23:33:08.271Z,7.38
2022-11-24T23:38:10.644Z,6.68
2022-11-24T23:43:14.360Z,7.22
2022-11-24T23:48:16.747Z,6.45
2022-11-24T23:53:19.051Z,6.82
2022-11-24T23:58:22.751Z,6.97
